Time;durP1;ratioP1;P1;durP2;ratioP2;P2;SDS_P1;SDS_P2;PMS_P1;PMS_P2;Temp;Humidity;BMP_temperature;BMP_pressure;BME280_temperature;BME280_humidity;BME280_pressure;Samples;Min_cycle;Max_cycle;Signal;HPM_P1;HPM_P2
2022/12/23 00:01:15;;;;;;;15.50;4.30;;;8.40;99.90;;;;;;5010937;28;20046;-72
2022/12/23 00:03:43;;;;;;;19.02;4.50;;;8.40;99.90;;;;;;5007726;28;20496;-71
2022/12/23 00:06:13;;;;;;;20.00;4.78;;;8.40;99.90;;;;;;5009472;28;20148;-72
2022/12/23 00:08:41;;;;;;;19.33;4.60;;;8.40;99.90;;;;;;5008962;28;20119;-71
2022/12/23 00:11:17;;;;;;;17.45;4.53;;;8.30;99.90;;;;;;5041540;28;20037;-72
2022/12/23 00:16:35;;;;;;;15.05;5.07;;;8.30;99.90;;;;;;5008619;28;20082;-71
2022/12/23 00:19:03;;;;;;;;;;;8.40;99.90;;;;;;5008753;28;20049;-71
2022/12/23 00:21:31;;;;;;;17.88;5.30;;;8.30;99.90;;;;;;5010862;28;19943;-71
2022/12/23 00:23:58;;;;;;;14.80;3.90;;;8.30;99.90;;;;;;5007634;28;20050;-71
2022/12/23 00:26:26;;;;;;;19.38;4.90;;;8.30;99.90;;;;;;5002814;28;20410;-71
2022/12/23 00:28:59;;;;;;;20.70;5.10;;;8.30;99.90;;;;;;5004992;28;20054;-71
2022/12/23 00:31:26;;;;;;;21.88;5.43;;;8.30;99.90;;;;;;5028542;28;20449;-72
2022/12/23 00:33:54;;;;;;;22.27;5.88;;;8.30;99.90;;;;;;4999755;28;20153;-73
2022/12/23 00:36:29;;;;;;;19.77;5.38;;;8.30;99.90;;;;;;4997972;28;20057;-72
2022/12/23 00:44:30;;;;;;;19.90;5.55;;;8.30;99.90;;;;;;5025384;28;20049;-72
2022/12/23 00:46:58;;;;;;;14.65;4.90;;;8.30;99.90;;;;;;5010366;28;20417;-74
2022/12/23 00:49:43;;;;;;;19.52;4.97;;;8.40;99.90;;;;;;4994166;28;20140;-74
2022/12/23 00:52:14;;;;;;;18.85;4.63;;;8.40;99.90;;;;;;5027510;28;20626;-74
2022/12/23 00:54:42;;;;;;;20.05;4.70;;;8.40;99.90;;;;;;4978351;28;20105;-73
2022/12/23 00:57:09;;;;;;;20.08;5.95;;;8.30;99.90;;;;;;5011850;28;20046;-72
2022/12/23 00:59:37;;;;;;;24.42;5.60;;;8.30;99.90;;;;;;5010651;28;20054;-73
2022/12/23 01:07:38;;;;;;;12.27;4.72;;;8.40;99.90;;;;;;4999791;28;20038;-72
2022/12/23 01:10:07;;;;;;;11.93;4.63;;;8.40;99.90;;;;;;5010006;28;20384;-72
2022/12/23 01:12:34;;;;;;;19.48;5.07;;;8.40;99.90;;;;;;5025626;28;20049;-72
2022/12/23 01:15:01;;;;;;;17.95;5.88;;;8.40;99.90;;;;;;5009084;28;20462;-72
2022/12/23 01:17:29;;;;;;;17.77;5.53;;;8.40;99.90;;;;;;5010852;28;20100;-72
2022/12/23 01:19:56;;;;;;;17.65;5.55;;;8.40;99.90;;;;;;5010844;28;20038;-72
2022/12/23 01:22:24;;;;;;;13.48;5.50;;;8.40;99.90;;;;;;5008409;28;20053;-72
2022/12/23 01:24:51;;;;;;;17.20;5.53;;;8.40;99.90;;;;;;5010862;28;20052;-72
2022/12/23 01:27:18;;;;;;;13.82;5.10;;;8.40;99.90;;;;;;5011578;28;20049;-72
2022/12/23 01:29:46;;;;;;;14.65;4.40;;;8.40;99.90;;;;;;5005996;28;20113;-72
2022/12/23 01:32:13;;;;;;;10.95;4.63;;;8.30;99.90;;;;;;5022809;28;20416;-72
2022/12/23 01:34:40;;;;;;;17.42;4.20;;;8.40;99.90;;;;;;4992610;28;20046;-72
2022/12/23 01:37:08;;;;;;;14.75;4.68;;;8.40;99.90;;;;;;5004811;28;20424;-72
2022/12/23 01:39:35;;;;;;;17.48;4.35;;;8.40;99.90;;;;;;5006794;28;20467;-72
2022/12/23 01:45:19;;;;;;;13.15;5.30;;;8.50;99.90;;;;;;5005101;28;20049;-71
2022/12/23 01:48:08;;;;;;;14.93;4.72;;;8.40;99.90;;;;;;5009761;28;20104;-72
2022/12/23 01:50:41;;;;;;;17.65;5.20;;;8.40;99.90;;;;;;4996564;28;20421;-72
2022/12/23 01:53:18;;;;;;;11.65;4.35;;;8.50;99.90;;;;;;5009531;28;20042;-72
2022/12/23 01:55:49;;;;;;;9.73;4.55;;;8.50;99.90;;;;;;5009710;28;20136;-72
2022/12/23 01:58:23;;;;;;;15.27;4.55;;;8.50;99.90;;;;;;5009616;28;20053;-72
2022/12/23 02:03:43;;;;;;;13.93;4.32;;;8.50;99.90;;;;;;5012531;28;20519;-72
2022/12/23 02:09:28;;;;;;;12.68;4.28;;;8.50;99.90;;;;;;5021027;28;20037;-71
2022/12/23 02:11:55;;;;;;;14.95;5.32;;;8.50;99.90;;;;;;5018172;28;20038;-72
2022/12/23 02:17:44;;;;;;;10.10;3.92;;;8.60;99.90;;;;;;5021770;28;20053;-71
2022/12/23 02:20:25;;;;;;;12.15;3.88;;;8.60;99.90;;;;;;4985790;28;20148;-71
2022/12/23 02:23:30;;;;;;;11.97;4.37;;;8.60;99.90;;;;;;4989954;28;20350;-71
2022/12/23 02:26:19;;;;;;;13.65;3.88;;;8.50;99.90;;;;;;5019592;28;20199;-72
2022/12/23 02:29:07;;;;;;;14.18;4.47;;;8.50;99.90;;;;;;5026274;28;20895;-71
2022/12/23 02:31:57;;;;;;;10.93;4.07;;;8.50;99.90;;;;;;5027483;28;20652;-71
2022/12/23 02:34:30;;;;;;;13.93;4.57;;;8.50;99.90;;;;;;5023833;28;20139;-72
2022/12/23 02:37:09;;;;;;;11.88;4.50;;;8.50;99.90;;;;;;5013468;28;20547;-72
2022/12/23 02:40:09;;;;;;;14.88;4.22;;;8.50;99.90;;;;;;4992482;28;20049;-72
2022/12/23 02:43:11;;;;;;;13.15;4.28;;;8.40;99.90;;;;;;4990520;28;20102;-72
2022/12/23 02:45:58;;;;;;;;;;;8.40;99.90;;;;;;5003985;28;20038;-72
2022/12/23 02:48:34;;;;;;;12.65;4.35;;;8.40;99.90;;;;;;5008667;28;19925;-72
2022/12/23 02:51:03;;;;;;;15.68;4.32;;;8.40;99.90;;;;;;5011270;28;20042;-72
2022/12/23 02:53:35;;;;;;;12.40;4.90;;;8.40;99.90;;;;;;5005644;28;20049;-72
2022/12/23 02:56:05;;;;;;;11.23;5.18;;;8.40;99.90;;;;;;5004581;28;20053;-72
2022/12/23 02:58:41;;;;;;;8.63;4.68;;;8.40;99.90;;;;;;5042381;28;20121;-72
2022/12/23 03:01:10;;;;;;;10.57;5.10;;;8.40;99.90;;;;;;5016287;28;20046;-72
2022/12/23 03:03:39;;;;;;;14.93;4.82;;;8.50;99.90;;;;;;5010114;28;20089;-72
2022/12/23 03:06:16;;;;;;;9.85;5.07;;;8.50;99.90;;;;;;5003234;28;20113;-72
2022/12/23 03:08:44;;;;;;;10.98;4.88;;;8.50;99.90;;;;;;5007060;28;20504;-72
2022/12/23 03:11:14;;;;;;;11.32;4.78;;;8.50;99.90;;;;;;5006754;28;20042;-72
2022/12/23 03:13:54;;;;;;;16.25;5.10;;;8.50;99.90;;;;;;5011722;28;20060;-72
2022/12/23 03:16:26;;;;;;;11.55;4.85;;;8.50;99.90;;;;;;5024085;28;20068;-72
2022/12/23 03:19:27;;;;;;;11.77;5.35;;;8.50;99.90;;;;;;5009694;28;20409;-72
2022/12/23 03:22:25;;;;;;;13.05;4.95;;;8.50;99.90;;;;;;5024978;28;20061;-72
2022/12/23 03:24:59;;;;;;;11.10;5.30;;;8.50;99.90;;;;;;5029681;28;20534;-72
2022/12/23 03:27:38;;;;;;;10.73;5.00;;;8.50;99.90;;;;;;5029024;28;20046;-72
2022/12/23 03:30:25;;;;;;;15.18;5.47;;;8.50;99.90;;;;;;5011240;28;20053;-73
2022/12/23 03:32:59;;;;;;;12.18;5.55;;;8.60;99.90;;;;;;5020458;28;20103;-72
2022/12/23 03:35:42;;;;;;;12.70;5.43;;;8.50;99.90;;;;;;5012816;28;20057;-72
2022/12/23 03:38:13;;;;;;;11.32;5.18;;;8.50;99.90;;;;;;5018389;28;20066;-72
2022/12/23 03:40:45;;;;;;;10.95;5.13;;;8.50;99.90;;;;;;5014476;28;20380;-72
2022/12/23 03:43:29;;;;;;;10.32;4.72;;;8.60;99.90;;;;;;4993734;28;20336;-72
2022/12/23 03:46:00;;;;;;;8.63;4.57;;;8.60;99.90;;;;;;5025105;28;20064;-71
2022/12/23 03:48:33;;;;;;;9.98;4.75;;;8.60;99.90;;;;;;5011968;28;20040;-72
2022/12/23 03:51:24;;;;;;;11.30;4.78;;;8.60;99.90;;;;;;5027875;28;20065;-71
2022/12/23 03:53:59;;;;;;;9.63;4.35;;;8.60;99.90;;;;;;5012190;28;20483;-72
2022/12/23 03:56:39;;;;;;;9.27;4.60;;;8.60;99.90;;;;;;5012281;28;20566;-71
2022/12/23 03:59:13;;;;;;;7.65;4.72;;;8.60;99.90;;;;;;5016679;28;20056;-72
2022/12/23 04:02:07;;;;;;;9.38;5.22;;;8.60;99.90;;;;;;5011316;28;20152;-71
2022/12/23 04:05:14;;;;;;;8.52;4.20;;;8.60;99.90;;;;;;5021568;28;20416;-71
2022/12/23 04:08:06;;;;;;;11.32;4.93;;;8.60;99.90;;;;;;5006182;28;20049;-71
2022/12/23 04:10:33;;;;;;;;;;;8.60;99.90;;;;;;5009564;28;20042;-72
2022/12/23 04:13:01;;;;;;;9.20;5.00;;;8.70;99.90;;;;;;5022168;28;20028;-71
2022/12/23 04:15:28;;;;;;;9.05;5.32;;;8.60;99.90;;;;;;5009953;28;20052;-73
2022/12/23 04:17:57;;;;;;;8.93;4.50;;;8.70;99.90;;;;;;5004360;28;20121;-72
2022/12/23 04:20:24;;;;;;;9.43;4.47;;;8.60;99.90;;;;;;5003060;28;20117;-72
2022/12/23 04:22:51;;;;;;;8.65;4.95;;;8.70;99.90;;;;;;5003340;28;20078;-72
2022/12/23 04:25:19;;;;;;;7.00;4.30;;;8.70;99.90;;;;;;4995053;28;20359;-72
2022/12/23 04:27:46;;;;;;;9.38;4.95;;;8.60;99.90;;;;;;5010500;28;20125;-72
2022/12/23 04:30:13;;;;;;;10.07;5.32;;;8.70;99.90;;;;;;5010134;28;20152;-72
2022/12/23 04:32:41;;;;;;;10.75;4.80;;;8.70;99.90;;;;;;5010725;28;20489;-73
2022/12/23 04:35:09;;;;;;;8.98;4.53;;;8.70;99.90;;;;;;4991329;28;20050;-72
2022/12/23 04:37:37;;;;;;;11.05;4.50;;;8.60;99.90;;;;;;5024841;28;20503;-72
2022/12/23 04:40:05;;;;;;;8.40;4.40;;;8.70;99.90;;;;;;5008323;28;20123;-72
2022/12/23 04:42:33;;;;;;;8.20;4.32;;;8.70;99.90;;;;;;5009959;28;20144;-72
2022/12/23 04:45:01;;;;;;;8.52;4.60;;;8.70;99.90;;;;;;5008244;28;20034;-72
2022/12/23 04:47:28;;;;;;;9.80;4.70;;;8.70;99.90;;;;;;5008909;28;20038;-72
2022/12/23 04:49:55;;;;;;;11.32;4.45;;;8.80;99.90;;;;;;5008431;28;20053;-72
2022/12/23 04:52:23;;;;;;;9.35;4.88;;;8.70;99.90;;;;;;5009274;28;20405;-72
2022/12/23 04:54:50;;;;;;;8.95;4.38;;;8.70;99.90;;;;;;5009035;28;20049;-72
2022/12/23 04:57:17;;;;;;;10.65;4.80;;;8.70;99.90;;;;;;5006713;28;20050;-72
2022/12/23 04:59:44;;;;;;;9.23;5.07;;;8.70;99.90;;;;;;5008289;28;20516;-72
2022/12/23 05:02:12;;;;;;;9.10;4.72;;;8.80;99.90;;;;;;5009710;28;20053;-73
2022/12/23 05:04:39;;;;;;;6.75;4.30;;;8.80;99.90;;;;;;5007903;28;20133;-72
2022/12/23 05:07:07;;;;;;;10.95;5.78;;;8.70;99.90;;;;;;5005190;28;20042;-72
2022/12/23 05:09:34;;;;;;;14.80;7.20;;;8.70;99.90;;;;;;5020185;28;20113;-73
2022/12/23 05:12:01;;;;;;;15.02;6.57;;;8.70;99.90;;;;;;5009010;28;20413;-73
2022/12/23 05:14:29;;;;;;;12.68;6.80;;;8.70;99.90;;;;;;5005717;28;20065;-72
2022/12/23 05:16:56;;;;;;;10.88;6.45;;;8.70;99.90;;;;;;5009175;28;20038;-71
2022/12/23 05:19:31;;;;;;;12.52;6.75;;;8.70;99.90;;;;;;5008741;28;20073;-71
2022/12/23 05:21:58;;;;;;;13.00;6.30;;;8.80;99.90;;;;;;5007677;28;20141;-72
2022/12/23 05:24:25;;;;;;;15.07;6.18;;;8.70;99.90;;;;;;5009084;28;20042;-72
2022/12/23 05:26:53;;;;;;;12.82;5.95;;;8.80;99.90;;;;;;4988983;28;20077;-71
2022/12/23 05:29:26;;;;;;;14.65;6.70;;;8.80;99.90;;;;;;4997922;28;20070;-71
2022/12/23 05:31:54;;;;;;;13.07;5.60;;;8.80;99.90;;;;;;5020495;28;20064;-73
2022/12/23 05:34:21;;;;;;;11.05;5.65;;;8.80;99.90;;;;;;4996620;28;20053;-72
2022/12/23 05:36:49;;;;;;;10.23;4.88;;;8.80;99.90;;;;;;5028544;28;20046;-72
2022/12/23 05:39:16;;;;;;;10.77;5.63;;;8.80;99.90;;;;;;5007549;28;20065;-72
2022/12/23 05:41:44;;;;;;;9.80;6.13;;;8.80;99.90;;;;;;5010949;28;20042;-72
2022/12/23 05:44:11;;;;;;;9.95;5.47;;;8.70;99.90;;;;;;5026817;28;20054;-72
2022/12/23 05:46:39;;;;;;;8.85;4.72;;;8.70;99.90;;;;;;5008998;28;20066;-72
2022/12/23 05:49:06;;;;;;;8.88;4.90;;;8.80;99.90;;;;;;5008076;28;20397;-72
2022/12/23 05:51:33;;;;;;;10.52;5.10;;;8.70;99.90;;;;;;5013690;28;20497;-72
2022/12/23 05:54:01;;;;;;;6.78;4.60;;;8.70;99.90;;;;;;5012701;28;20049;-72
2022/12/23 05:56:28;;;;;;;7.22;4.60;;;8.80;99.90;;;;;;5011704;28;20037;-72
2022/12/23 05:58:55;;;;;;;8.18;4.57;;;8.70;99.90;;;;;;5026575;28;20519;-72
2022/12/23 06:01:22;;;;;;;6.60;4.03;;;8.70;99.90;;;;;;4984423;28;20516;-72
2022/12/23 06:03:50;;;;;;;6.00;4.03;;;8.70;99.90;;;;;;5012123;28;20489;-73
2022/12/23 06:06:17;;;;;;;6.38;4.05;;;8.80;99.90;;;;;;5009850;28;20512;-72
2022/12/23 06:08:44;;;;;;;5.55;3.63;;;8.80;99.90;;;;;;5037669;28;20048;-73
2022/12/23 06:11:12;;;;;;;6.80;4.18;;;8.80;99.90;;;;;;5024344;28;20042;-73
2022/12/23 06:13:39;;;;;;;8.52;4.13;;;8.90;99.90;;;;;;5006507;28;20476;-73
2022/12/23 06:16:06;;;;;;;7.47;3.95;;;8.80;99.90;;;;;;5008003;28;20485;-72
2022/12/23 06:18:34;;;;;;;5.80;3.58;;;8.90;99.90;;;;;;5010659;28;20046;-73
2022/12/23 06:21:01;;;;;;;9.05;4.47;;;8.90;99.90;;;;;;5012994;28;20156;-73
2022/12/23 06:23:28;;;;;;;6.95;3.67;;;8.90;99.90;;;;;;5019956;28;20089;-73
2022/12/23 06:26:00;;;;;;;6.60;3.75;;;8.90;99.90;;;;;;5012574;28;20142;-72
2022/12/23 06:28:28;;;;;;;5.13;3.65;;;8.90;99.90;;;;;;5011641;28;20038;-73
2022/12/23 06:30:56;;;;;;;6.10;3.88;;;8.90;99.90;;;;;;5007829;28;20489;-73
2022/12/23 06:33:24;;;;;;;5.85;3.53;;;9.00;99.90;;;;;;5010593;28;20038;-72
2022/12/23 06:35:51;;;;;;;5.55;2.97;;;9.00;99.90;;;;;;5011091;28;20542;-72
2022/12/23 06:38:18;;;;;;;6.15;3.38;;;9.00;99.90;;;;;;5007680;28;20501;-72
2022/12/23 06:40:46;;;;;;;5.20;3.30;;;9.00;99.90;;;;;;5015194;28;20061;-72
2022/12/23 06:43:13;;;;;;;4.70;3.10;;;9.00;99.90;;;;;;5008992;28;20061;-73
2022/12/23 06:45:44;;;;;;;4.97;3.17;;;9.00;99.90;;;;;;5010974;28;20033;-72
2022/12/23 06:48:12;;;;;;;4.53;2.70;;;9.00;99.90;;;;;;5007039;28;20045;-72
2022/12/23 06:50:39;;;;;;;5.25;2.60;;;9.00;99.90;;;;;;5011622;28;20156;-72
2022/12/23 06:53:07;;;;;;;4.35;2.47;;;9.00;99.90;;;;;;5009701;28;20068;-71
2022/12/23 06:55:35;;;;;;;3.60;2.45;;;9.10;99.90;;;;;;4991592;28;20057;-71
2022/12/23 06:58:03;;;;;;;4.57;2.70;;;9.00;99.90;;;;;;5008898;28;20509;-73
2022/12/23 07:00:30;;;;;;;4.95;2.30;;;9.00;99.90;;;;;;5032974;28;20465;-74
2022/12/23 07:02:57;;;;;;;3.78;2.22;;;9.00;99.90;;;;;;5005943;28;20127;-73
2022/12/23 07:05:25;;;;;;;3.63;2.35;;;9.10;99.90;;;;;;5006289;28;20053;-73
2022/12/23 07:07:59;;;;;;;4.72;2.65;;;9.00;99.90;;;;;;5008585;28;20126;-73
2022/12/23 07:10:26;;;;;;;4.72;2.47;;;9.00;99.90;;;;;;5006944;28;20034;-73
2022/12/23 07:12:53;;;;;;;4.03;2.47;;;9.10;99.90;;;;;;4993865;28;20511;-73
2022/12/23 07:15:21;;;;;;;4.55;2.20;;;9.10;99.90;;;;;;5010932;28;20513;-73
2022/12/23 07:17:48;;;;;;;4.43;2.60;;;9.10;99.90;;;;;;5010040;28;20504;-72
2022/12/23 07:20:15;;;;;;;4.05;2.80;;;9.10;99.90;;;;;;5009032;28;20810;-72
2022/12/23 07:22:43;;;;;;;4.13;2.42;;;9.20;99.90;;;;;;5005086;28;20428;-72
2022/12/23 07:25:10;;;;;;;3.20;1.50;;;9.20;99.90;;;;;;5008251;28;20045;-72
2022/12/23 07:27:37;;;;;;;2.45;1.48;;;9.30;99.90;;;;;;5024745;28;20476;-72
2022/12/23 07:30:05;;;;;;;4.55;1.75;;;9.40;99.90;;;;;;5009445;28;20472;-72
2022/12/23 07:32:35;;;;;;;3.28;1.30;;;9.50;99.90;;;;;;5009304;28;20385;-73
2022/12/23 07:35:03;;;;;;;2.25;1.02;;;9.60;99.90;;;;;;5006530;28;20053;-73
2022/12/23 07:37:31;;;;;;;2.58;1.00;;;9.50;99.90;;;;;;5004656;28;20496;-73
2022/12/23 07:39:58;;;;;;;1.48;0.80;;;9.50;99.90;;;;;;5006332;28;20070;-72
2022/12/23 07:42:34;;;;;;;2.35;0.90;;;9.50;99.90;;;;;;5038866;28;20050;-73
2022/12/23 07:45:16;;;;;;;1.40;0.77;;;9.50;99.90;;;;;;5011356;28;20115;-73
2022/12/23 07:47:44;;;;;;;4.18;1.73;;;9.50;99.90;;;;;;4991768;28;20421;-74
2022/12/23 07:50:12;;;;;;;3.55;1.30;;;9.50;99.90;;;;;;5008773;28;20053;-73
2022/12/23 07:52:39;;;;;;;2.95;1.30;;;9.60;99.90;;;;;;5006680;28;20049;-74
2022/12/23 07:55:07;;;;;;;1.45;0.90;;;9.60;99.90;;;;;;5019999;28;20030;-74
2022/12/23 07:57:36;;;;;;;1.95;1.00;;;9.50;99.90;;;;;;5018673;28;20479;-73
2022/12/23 08:00:06;;;;;;;1.98;0.90;;;9.60;99.90;;;;;;5004296;28;20105;-73
2022/12/23 08:02:39;;;;;;;1.92;1.08;;;9.60;99.90;;;;;;4998257;28;20504;-72
2022/12/23 08:05:07;;;;;;;1.73;1.00;;;9.60;99.90;;;;;;5021430;28;20128;-72
2022/12/23 08:07:35;;;;;;;3.08;1.08;;;9.70;99.90;;;;;;5025069;28;20061;-72
2022/12/23 08:10:03;;;;;;;2.10;1.00;;;9.70;99.90;;;;;;5002734;28;20137;-72
2022/12/23 08:12:31;;;;;;;2.28;0.93;;;9.70;99.90;;;;;;5036187;28;20037;-72
2022/12/23 08:14:58;;;;;;;2.25;0.90;;;9.70;99.90;;;;;;4993747;28;20069;-73
2022/12/23 08:17:28;;;;;;;1.90;0.90;;;9.80;99.90;;;;;;5005268;28;20054;-73
2022/12/23 08:19:56;;;;;;;5.65;1.40;;;9.70;99.90;;;;;;5008041;28;20076;-71
2022/12/23 08:22:23;;;;;;;2.67;1.35;;;9.80;99.90;;;;;;5000676;28;20129;-72
2022/12/23 08:24:51;;;;;;;2.35;1.15;;;9.90;99.90;;;;;;5001335;28;20464;-73
2022/12/23 08:27:18;;;;;;;2.45;1.30;;;9.90;99.90;;;;;;4990164;28;20046;-72
2022/12/23 08:29:46;;;;;;;1.95;1.17;;;9.90;99.90;;;;;;4991287;28;20026;-72
2022/12/23 08:32:13;;;;;;;4.35;1.33;;;10.00;99.90;;;;;;5022066;28;20400;-72
2022/12/23 08:34:40;;;;;;;3.13;1.50;;;10.00;99.90;;;;;;5039940;28;20405;-72
2022/12/23 08:37:08;;;;;;;3.75;1.38;;;10.10;99.90;;;;;;5002825;28;20076;-72
2022/12/23 08:39:35;;;;;;;2.33;1.27;;;10.10;99.90;;;;;;4988271;28;20499;-73
2022/12/23 08:42:03;;;;;;;3.50;1.60;;;10.20;99.90;;;;;;5012980;28;20049;-73
2022/12/23 08:44:31;;;;;;;2.88;1.63;;;10.20;99.90;;;;;;5003363;28;20512;-73
2022/12/23 08:46:58;;;;;;;6.10;1.63;;;10.20;99.90;;;;;;4989527;28;20576;-74
2022/12/23 08:49:26;;;;;;;4.97;1.70;;;10.20;99.90;;;;;;5005956;28;20076;-73
2022/12/23 08:51:53;;;;;;;4.40;1.65;;;10.30;99.90;;;;;;5005636;28;20046;-73
2022/12/23 08:54:22;;;;;;;5.22;1.70;;;10.40;99.90;;;;;;4983044;28;20045;-73
2022/12/23 08:56:50;;;;;;;2.97;1.90;;;10.30;99.90;;;;;;5003904;28;20557;-72
2022/12/23 08:59:17;;;;;;;2.53;1.50;;;10.30;99.90;;;;;;5009256;28;20048;-73
2022/12/23 09:01:46;;;;;;;3.40;1.80;;;10.30;99.90;;;;;;5008461;28;20053;-73
2022/12/23 09:04:14;;;;;;;5.13;2.13;;;10.20;99.90;;;;;;5009500;28;20069;-72
2022/12/23 09:06:42;;;;;;;3.88;2.20;;;10.30;99.90;;;;;;5008319;28;20041;-74
2022/12/23 09:09:13;;;;;;;3.47;2.00;;;10.20;99.90;;;;;;5022917;28;20518;-72
2022/12/23 09:11:40;;;;;;;5.38;2.80;;;10.30;99.90;;;;;;5009407;28;20042;-73
2022/12/23 09:14:09;;;;;;;4.57;2.65;;;10.30;99.90;;;;;;5007470;28;20389;-72
2022/12/23 09:16:37;;;;;;;3.58;2.35;;;10.30;99.90;;;;;;4993441;28;20168;-73
2022/12/23 09:19:06;;;;;;;6.07;2.70;;;10.40;99.90;;;;;;5020829;28;20050;-72
2022/12/23 09:21:34;;;;;;;4.38;2.40;;;10.50;99.90;;;;;;5000786;28;20448;-72
2022/12/23 09:24:01;;;;;;;4.78;3.03;;;10.60;99.90;;;;;;5007265;28;20064;-72
2022/12/23 09:26:29;;;;;;;5.78;3.50;;;10.70;99.90;;;;;;5008387;28;20044;-73
2022/12/23 09:28:57;;;;;;;6.60;4.10;;;10.80;99.90;;;;;;5003597;28;20042;-73
2022/12/23 09:31:25;;;;;;;5.50;3.33;;;10.90;99.90;;;;;;5008414;28;20104;-73
2022/12/23 09:34:02;;;;;;;5.13;3.00;;;11.00;99.90;;;;;;4990737;28;20465;-73
2022/12/23 09:36:29;;;;;;;4.18;2.63;;;11.00;99.90;;;;;;5007508;28;20056;-73
2022/12/23 09:38:57;;;;;;;5.35;3.08;;;11.10;99.90;;;;;;5014800;28;20104;-72
2022/12/23 09:41:47;;;;;;;5.20;2.45;;;11.00;99.90;;;;;;5012793;28;20072;-74
2022/12/23 09:44:44;;;;;;;6.68;2.55;;;11.00;99.90;;;;;;5007240;28;20073;-72
2022/12/23 09:47:16;;;;;;;8.30;2.50;;;10.90;99.90;;;;;;5019454;28;20053;-72
2022/12/23 09:49:54;;;;;;;5.22;3.13;;;10.90;99.90;;;;;;5004622;28;20038;-73
2022/12/23 09:52:29;;;;;;;6.80;3.88;;;10.80;99.90;;;;;;5008305;28;20052;-73
2022/12/23 09:54:56;;;;;;;6.10;3.42;;;10.80;99.90;;;;;;5021066;28;20082;-72
2022/12/23 09:57:46;;;;;;;5.85;3.50;;;10.80;99.90;;;;;;5007613;28;20046;-73
2022/12/23 10:00:16;;;;;;;6.07;3.58;;;10.80;99.90;;;;;;5001698;28;20049;-72
2022/12/23 10:03:04;;;;;;;7.13;3.70;;;10.70;99.90;;;;;;5024348;28;20103;-73
2022/12/23 10:06:09;;;;;;;6.32;4.10;;;10.70;99.90;;;;;;5003636;28;20579;-72
2022/12/23 10:08:44;;;;;;;6.75;4.13;;;10.60;99.90;;;;;;5006696;28;20367;-72
2022/12/23 10:11:21;;;;;;;5.90;4.35;;;10.50;99.90;;;;;;5003301;28;20509;-73
2022/12/23 10:13:55;;;;;;;9.63;6.53;;;10.50;99.90;;;;;;5005857;28;20075;-72
2022/12/23 10:16:27;;;;;;;8.25;4.95;;;10.50;99.90;;;;;;5000429;28;20037;-72
2022/12/23 10:18:58;;;;;;;7.60;4.80;;;10.60;99.90;;;;;;5022967;28;20038;-72
2022/12/23 10:21:48;;;;;;;7.53;4.75;;;10.60;99.90;;;;;;5008640;28;20104;-74
2022/12/23 10:24:21;;;;;;;6.90;4.82;;;10.70;99.90;;;;;;4998595;28;20113;-73
2022/12/23 10:27:21;;;;;;;7.55;4.40;;;10.70;99.90;;;;;;5007784;28;20038;-73
2022/12/23 10:29:48;;;;;;;9.15;4.93;;;10.70;99.90;;;;;;5011618;28;20068;-72
2022/12/23 10:32:16;;;;;;;7.82;4.80;;;10.80;99.90;;;;;;5010746;28;20050;-73
2022/12/23 10:35:03;;;;;;;6.20;4.40;;;10.80;99.90;;;;;;5007727;28;20038;-73
2022/12/23 10:37:42;;;;;;;6.97;4.70;;;10.90;99.90;;;;;;4999022;28;20064;-73
2022/12/23 10:40:24;;;;;;;6.68;4.70;;;10.90;99.90;;;;;;5010687;28;20496;-72
2022/12/23 10:43:21;;;;;;;7.82;4.35;;;11.00;99.90;;;;;;5008374;28;20080;-71
2022/12/23 10:46:32;;;;;;;8.02;4.60;;;11.00;99.90;;;;;;5042653;28;20369;-72
2022/12/23 10:49:14;;;;;;;6.10;3.75;;;10.80;99.90;;;;;;5022203;28;20056;-73
2022/12/23 10:51:58;;;;;;;5.68;3.92;;;10.80;99.90;;;;;;5032978;28;20052;-73
2022/12/23 10:54:36;;;;;;;6.20;3.95;;;10.80;99.90;;;;;;5025066;28;20060;-73
2022/12/23 10:57:05;;;;;;;6.43;3.92;;;10.70;99.90;;;;;;5045720;28;20057;-72
2022/12/23 10:59:34;;;;;;;6.72;4.57;;;10.70;99.90;;;;;;5046237;28;20441;-72
2022/12/23 11:02:11;;;;;;;7.57;4.63;;;10.70;99.90;;;;;;5032271;28;20507;-73
2022/12/23 11:04:47;;;;;;;7.28;4.35;;;10.70;99.90;;;;;;5030776;28;20596;-73
2022/12/23 11:07:27;;;;;;;8.25;4.30;;;10.70;99.90;;;;;;5014277;28;20076;-72
2022/12/23 11:10:19;;;;;;;7.82;5.07;;;10.70;99.90;;;;;;5044737;28;20081;-72
2022/12/23 11:12:49;;;;;;;7.65;4.70;;;10.70;99.90;;;;;;5047652;28;20156;-73
2022/12/23 11:15:37;;;;;;;7.82;5.35;;;10.80;99.90;;;;;;5031045;28;20395;-73
2022/12/23 11:18:06;;;;;;;8.43;5.00;;;10.80;99.90;;;;;;5048752;28;20139;-73
2022/12/23 11:20:35;;;;;;;7.07;5.20;;;10.80;99.90;;;;;;5048101;28;20075;-73
2022/12/23 11:23:04;;;;;;;13.63;5.35;;;10.80;99.90;;;;;;5014970;28;20131;-72
2022/12/23 11:25:37;;;;;;;7.03;5.00;;;10.90;99.90;;;;;;5004315;28;20124;-72
2022/12/23 11:28:11;;;;;;;16.25;8.20;;;11.00;99.90;;;;;;5004258;28;20052;-72
2022/12/23 11:30:53;;;;;;;7.95;5.15;;;11.00;99.90;;;;;;5009249;28;20049;-71
2022/12/23 11:33:33;;;;;;;7.55;5.10;;;11.10;99.90;;;;;;5005809;28;20476;-71
2022/12/23 11:36:11;;;;;;;6.10;4.72;;;11.10;99.90;;;;;;5010511;28;20563;-72
2022/12/23 11:39:11;;;;;;;10.10;4.47;;;11.20;99.90;;;;;;5008920;28;20568;-73
2022/12/23 11:41:42;;;;;;;6.97;4.65;;;11.20;99.90;;;;;;5005828;28;20046;-71
2022/12/23 11:44:27;;;;;;;8.48;4.85;;;11.20;99.90;;;;;;5005975;28;20050;-71
2022/12/23 11:46:56;;;;;;;6.35;4.50;;;11.20;99.90;;;;;;5006625;28;20038;-71
2022/12/23 11:49:30;;;;;;;8.02;5.07;;;11.20;99.90;;;;;;5004863;28;20054;-72
2022/12/23 11:52:04;;;;;;;8.13;4.88;;;11.20;99.90;;;;;;4986945;28;20516;-72
2022/12/23 11:54:32;;;;;;;6.93;4.30;;;11.30;99.90;;;;;;5005957;28;20914;-72
2022/12/23 11:57:04;;;;;;;6.32;3.67;;;11.30;99.90;;;;;;4990162;28;20500;-73
2022/12/23 11:59:33;;;;;;;;;;;11.30;99.90;;;;;;5008583;28;20543;-72
2022/12/23 12:02:04;;;;;;;11.85;6.32;;;11.30;99.90;;;;;;5006521;28;19925;-71
2022/12/23 12:04:34;;;;;;;14.52;7.43;;;11.30;99.90;;;;;;4999475;28;20056;-73
2022/12/23 12:07:03;;;;;;;13.18;7.38;;;11.30;99.90;;;;;;5002388;28;20065;-73
2022/12/23 12:09:32;;;;;;;17.13;10.48;;;11.30;99.90;;;;;;4981517;28;20058;-71
2022/12/23 12:12:06;;;;;;;14.23;8.80;;;11.40;99.90;;;;;;5006830;28;20080;-71
2022/12/23 12:14:43;;;;;;;9.48;6.00;;;11.40;99.90;;;;;;5001853;28;20632;-73
2022/12/23 12:17:35;;;;;;;6.43;4.35;;;11.40;99.90;;;;;;5006945;28;20058;-73
2022/12/23 12:20:25;;;;;;;7.13;4.38;;;11.40;99.90;;;;;;5008154;28;20049;-73
2022/12/23 12:23:02;;;;;;;10.88;6.25;;;11.40;99.90;;;;;;5005601;28;20120;-72
2022/12/23 12:25:45;;;;;;;10.32;6.30;;;11.40;99.90;;;;;;5005203;28;20034;-73
2022/12/23 12:28:31;;;;;;;10.60;5.65;;;11.40;99.90;;;;;;5008694;28;20129;-73
2022/12/23 12:31:12;;;;;;;11.38;6.80;;;11.30;99.90;;;;;;5007755;28;20049;-73
2022/12/23 12:33:50;;;;;;;11.07;6.32;;;11.30;99.90;;;;;;5006251;28;20046;-73
2022/12/23 12:36:45;;;;;;;10.93;6.68;;;11.30;99.90;;;;;;5005194;28;20042;-73
2022/12/23 12:39:18;;;;;;;9.60;6.15;;;11.30;99.90;;;;;;4995517;28;20362;-73
2022/12/23 12:41:53;;;;;;;10.98;6.53;;;11.30;99.90;;;;;;5018963;28;20136;-72
2022/12/23 12:44:49;;;;;;;9.73;5.78;;;11.30;99.90;;;;;;5008051;28;20139;-72
2022/12/23 12:47:39;;;;;;;9.57;5.53;;;11.30;99.90;;;;;;5001322;28;20073;-72
2022/12/23 12:50:31;;;;;;;7.55;5.05;;;11.20;99.90;;;;;;4994953;28;20038;-72
2022/12/23 12:53:08;;;;;;;8.15;5.20;;;11.20;99.90;;;;;;5007644;28;20073;-72
2022/12/23 12:55:41;;;;;;;8.57;4.97;;;11.20;99.90;;;;;;5001074;28;20072;-72
2022/12/23 12:58:18;;;;;;;10.88;5.28;;;11.20;99.90;;;;;;5000065;28;20144;-71
2022/12/23 13:01:29;;;;;;;11.27;5.72;;;11.20;99.90;;;;;;5004622;28;20034;-72
2022/12/23 13:04:11;;;;;;;7.57;4.75;;;11.20;99.90;;;;;;4966339;28;20182;-71
2022/12/23 13:06:53;;;;;;;6.65;4.10;;;11.10;99.90;;;;;;4996999;28;20050;-72
2022/12/23 13:09:36;;;;;;;6.57;4.28;;;11.10;99.90;;;;;;5000878;28;20509;-73
2022/12/23 13:12:16;;;;;;;7.50;4.03;;;11.00;99.90;;;;;;4983560;28;20066;-72
2022/12/23 13:15:04;;;;;;;6.20;3.97;;;11.00;99.90;;;;;;4963739;28;20053;-72
2022/12/23 13:17:38;;;;;;;7.18;4.80;;;10.90;99.90;;;;;;4986248;28;20206;-71
2022/12/23 13:20:11;;;;;;;6.38;4.88;;;10.90;99.90;;;;;;4969847;28;20165;-71
2022/12/23 13:22:43;;;;;;;6.88;4.70;;;10.90;99.90;;;;;;4986414;28;20072;-72
2022/12/23 13:25:19;;;;;;;7.55;4.93;;;10.80;99.90;;;;;;5002159;28;20050;-71
2022/12/23 13:27:56;;;;;;;6.60;5.10;;;10.80;99.90;;;;;;4976661;28;20042;-71
2022/12/23 13:30:30;;;;;;;6.65;5.15;;;10.80;99.90;;;;;;4986541;28;20468;-71
2022/12/23 13:33:08;;;;;;;8.57;4.97;;;10.80;99.90;;;;;;4984938;28;20374;-71
2022/12/23 13:35:57;;;;;;;27.10;17.25;;;10.80;99.90;;;;;;4986956;28;20050;-71
2022/12/23 13:38:44;;;;;;;8.30;5.65;;;10.80;99.90;;;;;;4976694;28;20524;-72
2022/12/23 13:41:23;;;;;;;9.95;5.53;;;10.80;99.90;;;;;;4994691;28;20046;-72
2022/12/23 13:44:04;;;;;;;8.25;5.63;;;10.80;99.90;;;;;;5006250;28;20559;-71
2022/12/23 13:46:43;;;;;;;7.55;5.28;;;10.80;99.90;;;;;;5020445;28;20323;-71
2022/12/23 13:49:35;;;;;;;11.77;7.53;;;10.80;99.90;;;;;;4999097;28;20077;-72